sensor_id;sensor_type;location;lat;lon;timestamp;pressure;altitude;pressure_sealevel;temperature;humidity
40245;BME280;25963;42.694;23.600;2023-05-08T00:01:07;95386.56;;;12.73;95.99
40245;BME280;25963;42.694;23.600;2023-05-08T00:03:32;95372.09;;;12.76;95.31
40245;BME280;25963;42.694;23.600;2023-05-08T00:05:58;95403.75;;;13.24;92.31
40245;BME280;25963;42.694;23.600;2023-05-08T00:08:24;95370.00;;;12.66;94.22
40245;BME280;25963;42.694;23.600;2023-05-08T00:10:49;95384.41;;;12.82;94.85
40245;BME280;25963;42.694;23.600;2023-05-08T00:13:15;95381.84;;;12.64;95.59
40245;BME280;25963;42.694;23.600;2023-05-08T00:15:41;95373.88;;;12.64;95.80
40245;BME280;25963;42.694;23.600;2023-05-08T00:18:06;95368.09;;;12.55;96.02
40245;BME280;25963;42.694;23.600;2023-05-08T00:20:31;95376.19;;;12.60;95.77
40245;BME280;25963;42.694;23.600;2023-05-08T00:22:58;95402.59;;;12.78;95.67
40245;BME280;25963;42.694;23.600;2023-05-08T00:25:24;95389.53;;;12.95;94.77
40245;BME280;25963;42.694;23.600;2023-05-08T00:27:59;95399.50;;;12.82;94.73
40245;BME280;25963;42.694;23.600;2023-05-08T00:30:25;95398.47;;;12.83;94.87
40245;BME280;25963;42.694;23.600;2023-05-08T00:32:51;95385.66;;;12.79;94.24
40245;BME280;25963;42.694;23.600;2023-05-08T00:35:17;95394.56;;;12.85;94.50
40245;BME280;25963;42.694;23.600;2023-05-08T00:37:43;95383.69;;;12.63;94.93
40245;BME280;25963;42.694;23.600;2023-05-08T00:40:14;95386.56;;;12.73;94.22
40245;BME280;25963;42.694;23.600;2023-05-08T00:42:47;95361.47;;;12.64;94.51
40245;BME280;25963;42.694;23.600;2023-05-08T00:45:13;95390.25;;;12.72;95.01
40245;BME280;25963;42.694;23.600;2023-05-08T00:47:39;95391.16;;;12.66;95.90
40245;BME280;25963;42.694;23.600;2023-05-08T00:50:05;95383.44;;;12.65;95.33
40245;BME280;25963;42.694;23.600;2023-05-08T00:52:32;95372.31;;;12.74;94.27
40245;BME280;25963;42.694;23.600;2023-05-08T00:54:59;95403.78;;;12.94;94.04
40245;BME280;25963;42.694;23.600;2023-05-08T00:57:25;95388.63;;;12.60;95.26
40245;BME280;25963;42.694;23.600;2023-05-08T00:59:51;95394.13;;;12.58;95.15
40245;BME280;25963;42.694;23.600;2023-05-08T01:02:33;95378.44;;;12.45;95.34
40245;BME280;25963;42.694;23.600;2023-05-08T01:04:59;95400.13;;;12.65;94.40
40245;BME280;25963;42.694;23.600;2023-05-08T01:07:25;95395.66;;;12.66;94.30
40245;BME280;25963;42.694;23.600;2023-05-08T01:09:51;95402.00;;;12.46;96.08
40245;BME280;25963;42.694;23.600;2023-05-08T01:17:54;95379.31;;;12.39;94.54
40245;BME280;25963;42.694;23.600;2023-05-08T01:23:26;95386.31;;;11.96;97.73
40245;BME280;25963;42.694;23.600;2023-05-08T01:37:07;95400.13;;;11.98;96.70
40245;BME280;25963;42.694;23.600;2023-05-08T01:42:25;95383.09;;;11.94;97.21
40245;BME280;25963;42.694;23.600;2023-05-08T01:45:11;95375.06;;;11.82;97.27
40245;BME280;25963;42.694;23.600;2023-05-08T01:47:39;95385.22;;;11.85;97.83
40245;BME280;25963;42.694;23.600;2023-05-08T01:50:27;95398.44;;;12.04;97.88
40245;BME280;25963;42.694;23.600;2023-05-08T01:53:02;95379.03;;;11.92;98.53
40245;BME280;25963;42.694;23.600;2023-05-08T01:55:33;95389.28;;;11.81;98.96
40245;BME280;25963;42.694;23.600;2023-05-08T01:58:12;95382.88;;;11.71;100.00
40245;BME280;25963;42.694;23.600;2023-05-08T02:00:39;95376.38;;;11.73;100.00
40245;BME280;25963;42.694;23.600;2023-05-08T02:03:06;95402.34;;;11.76;99.78
40245;BME280;25963;42.694;23.600;2023-05-08T02:05:36;95381.41;;;11.56;100.00
40245;BME280;25963;42.694;23.600;2023-05-08T02:08:02;95378.13;;;11.36;100.00
40245;BME280;25963;42.694;23.600;2023-05-08T02:10:29;95382.19;;;11.57;100.00
40245;BME280;25963;42.694;23.600;2023-05-08T02:12:55;95398.06;;;11.75;100.00
40245;BME280;25963;42.694;23.600;2023-05-08T02:15:23;95379.66;;;11.69;99.99
40245;BME280;25963;42.694;23.600;2023-05-08T02:17:52;95387.38;;;11.45;100.00
40245;BME280;25963;42.694;23.600;2023-05-08T02:20:21;95383.50;;;11.48;100.00
40245;BME280;25963;42.694;23.600;2023-05-08T02:22:52;95377.91;;;11.37;100.00
40245;BME280;25963;42.694;23.600;2023-05-08T02:25:34;95379.97;;;11.35;100.00
40245;BME280;25963;42.694;23.600;2023-05-08T02:28:00;95388.53;;;11.56;99.97
40245;BME280;25963;42.694;23.600;2023-05-08T02:30:26;95413.34;;;11.55;100.00
40245;BME280;25963;42.694;23.600;2023-05-08T02:32:54;95390.84;;;11.46;99.23
40245;BME280;25963;42.694;23.600;2023-05-08T02:35:21;95385.19;;;11.42;98.83
40245;BME280;25963;42.694;23.600;2023-05-08T02:37:51;95390.22;;;11.25;99.43
40245;BME280;25963;42.694;23.600;2023-05-08T02:40:19;95403.28;;;11.38;100.00
40245;BME280;25963;42.694;23.600;2023-05-08T02:42:46;95405.19;;;11.56;99.52
40245;BME280;25963;42.694;23.600;2023-05-08T02:45:12;95383.59;;;11.16;100.00
40245;BME280;25963;42.694;23.600;2023-05-08T02:53:11;95408.63;;;11.57;99.15
40245;BME280;25963;42.694;23.600;2023-05-08T02:55:52;95414.34;;;11.79;97.49
40245;BME280;25963;42.694;23.600;2023-05-08T02:58:51;95397.00;;;11.83;95.76
40245;BME280;25963;42.694;23.600;2023-05-08T03:03:48;95369.94;;;11.19;99.58
40245;BME280;25963;42.694;23.600;2023-05-08T03:06:23;95401.41;;;11.20;100.00
40245;BME280;25963;42.694;23.600;2023-05-08T03:08:50;95380.94;;;11.16;100.00
40245;BME280;25963;42.694;23.600;2023-05-08T03:11:21;95374.81;;;11.22;99.69
40245;BME280;25963;42.694;23.600;2023-05-08T03:13:49;95384.59;;;11.15;100.00
40245;BME280;25963;42.694;23.600;2023-05-08T03:16:23;95415.38;;;11.53;98.84
40245;BME280;25963;42.694;23.600;2023-05-08T03:19:00;95404.84;;;11.21;100.00
40245;BME280;25963;42.694;23.600;2023-05-08T03:21:28;95399.94;;;11.25;100.00
40245;BME280;25963;42.694;23.600;2023-05-08T03:23:59;95378.63;;;11.26;99.90
40245;BME280;25963;42.694;23.600;2023-05-08T03:26:26;95384.59;;;11.15;100.00
40245;BME280;25963;42.694;23.600;2023-05-08T03:28:56;95368.75;;;11.15;99.97
40245;BME280;25963;42.694;23.600;2023-05-08T03:31:27;95420.22;;;11.56;99.03
40245;BME280;25963;42.694;23.600;2023-05-08T03:33:53;95389.22;;;11.45;98.71
40245;BME280;25963;42.694;23.600;2023-05-08T03:36:21;95383.69;;;11.71;98.27
40245;BME280;25963;42.694;23.600;2023-05-08T03:38:55;95373.38;;;11.45;97.58
40245;BME280;25963;42.694;23.600;2023-05-08T03:41:26;95350.28;;;11.58;97.94
40245;BME280;25963;42.694;23.600;2023-05-08T03:44:04;95385.44;;;11.59;97.75
40245;BME280;25963;42.694;23.600;2023-05-08T03:46:30;95382.22;;;11.75;97.56
40245;BME280;25963;42.694;23.600;2023-05-08T03:48:58;95410.94;;;12.15;97.09
40245;BME280;25963;42.694;23.600;2023-05-08T03:51:25;95419.44;;;12.17;96.26
40245;BME280;25963;42.694;23.600;2023-05-08T03:53:50;95407.91;;;12.30;96.33
40245;BME280;25963;42.694;23.600;2023-05-08T03:56:16;95396.63;;;12.53;95.44
40245;BME280;25963;42.694;23.600;2023-05-08T03:59:00;95407.03;;;12.66;94.76
40245;BME280;25963;42.694;23.600;2023-05-08T04:01:38;95403.06;;;13.17;92.26
40245;BME280;25963;42.694;23.600;2023-05-08T04:04:22;95423.59;;;13.34;90.44
40245;BME280;25963;42.694;23.600;2023-05-08T04:12:21;95427.00;;;14.92;79.41
40245;BME280;25963;42.694;23.600;2023-05-08T04:15:02;95428.00;;;15.48;78.13
40245;BME280;25963;42.694;23.600;2023-05-08T04:17:39;95416.19;;;16.12;74.98
40245;BME280;25963;42.694;23.600;2023-05-08T04:20:07;95433.38;;;16.65;72.56
40245;BME280;25963;42.694;23.600;2023-05-08T04:22:34;95434.16;;;17.09;67.52
40245;BME280;25963;42.694;23.600;2023-05-08T04:25:04;95425.84;;;17.33;64.40
40245;BME280;25963;42.694;23.600;2023-05-08T04:27:33;95405.59;;;17.37;64.78
40245;BME280;25963;42.694;23.600;2023-05-08T04:30:00;95413.69;;;17.79;62.92
40245;BME280;25963;42.694;23.600;2023-05-08T04:32:28;95432.84;;;18.66;60.44
40245;BME280;25963;42.694;23.600;2023-05-08T04:34:54;95425.16;;;18.70;59.61
40245;BME280;25963;42.694;23.600;2023-05-08T04:37:23;95422.78;;;18.74;58.96
40245;BME280;25963;42.694;23.600;2023-05-08T04:39:50;95419.78;;;18.65;59.22
40245;BME280;25963;42.694;23.600;2023-05-08T04:42:22;95438.84;;;18.79;59.51
40245;BME280;25963;42.694;23.600;2023-05-08T04:44:49;95420.16;;;18.89;57.64
40245;BME280;25963;42.694;23.600;2023-05-08T04:47:14;95417.53;;;19.20;57.55
40245;BME280;25963;42.694;23.600;2023-05-08T04:49:40;95406.06;;;19.34;54.77
40245;BME280;25963;42.694;23.600;2023-05-08T04:52:06;95396.72;;;19.88;53.78
40245;BME280;25963;42.694;23.600;2023-05-08T04:54:35;95393.13;;;20.34;52.07
40245;BME280;25963;42.694;23.600;2023-05-08T04:57:03;95390.78;;;20.06;51.75
40245;BME280;25963;42.694;23.600;2023-05-08T04:59:52;95396.72;;;19.98;51.52
40245;BME280;25963;42.694;23.600;2023-05-08T05:02:25;95364.34;;;19.38;53.14
40245;BME280;25963;42.694;23.600;2023-05-08T05:05:00;95385.19;;;19.62;54.34
40245;BME280;25963;42.694;23.600;2023-05-08T05:07:26;95392.72;;;19.45;54.54
40245;BME280;25963;42.694;23.600;2023-05-08T05:09:51;95386.78;;;19.32;54.08
40245;BME280;25963;42.694;23.600;2023-05-08T05:12:16;95397.50;;;19.32;56.55
40245;BME280;25963;42.694;23.600;2023-05-08T05:14:45;95391.91;;;19.39;54.63
40245;BME280;25963;42.694;23.600;2023-05-08T05:17:13;95390.81;;;19.60;54.59
40245;BME280;25963;42.694;23.600;2023-05-08T05:19:39;95400.75;;;19.80;52.82
40245;BME280;25963;42.694;23.600;2023-05-08T05:22:04;95405.47;;;20.24;52.41
40245;BME280;25963;42.694;23.600;2023-05-08T05:24:32;95373.00;;;20.46;52.28
40245;BME280;25963;42.694;23.600;2023-05-08T05:27:05;95355.69;;;20.83;50.08
40245;BME280;25963;42.694;23.600;2023-05-08T05:29:31;95376.69;;;20.66;50.83
40245;BME280;25963;42.694;23.600;2023-05-08T05:32:00;95373.22;;;20.60;49.10
40245;BME280;25963;42.694;23.600;2023-05-08T05:34:29;95378.13;;;20.38;49.75
40245;BME280;25963;42.694;23.600;2023-05-08T05:36:54;95364.03;;;19.96;51.75
40245;BME280;25963;42.694;23.600;2023-05-08T05:39:19;95408.09;;;20.55;49.56
40245;BME280;25963;42.694;23.600;2023-05-08T05:41:45;95399.94;;;20.81;50.47
40245;BME280;25963;42.694;23.600;2023-05-08T05:46:49;95394.09;;;22.16;47.94
40245;BME280;25963;42.694;23.600;2023-05-08T05:49:15;95388.31;;;22.75;43.93
40245;BME280;25963;42.694;23.600;2023-05-08T05:51:41;95383.22;;;22.98;45.44
40245;BME280;25963;42.694;23.600;2023-05-08T05:54:35;95357.44;;;22.73;43.53
40245;BME280;25963;42.694;23.600;2023-05-08T05:57:02;95342.28;;;23.01;41.85
40245;BME280;25963;42.694;23.600;2023-05-08T05:59:28;95342.59;;;23.18;40.47
40245;BME280;25963;42.694;23.600;2023-05-08T06:01:54;95354.13;;;22.38;41.11
40245;BME280;25963;42.694;23.600;2023-05-08T06:04:19;95347.69;;;23.01;40.45
40245;BME280;25963;42.694;23.600;2023-05-08T06:06:48;95353.81;;;22.83;41.54
40245;BME280;25963;42.694;23.600;2023-05-08T06:09:14;95383.47;;;22.77;41.40
40245;BME280;25963;42.694;23.600;2023-05-08T06:11:40;95352.00;;;23.35;41.24
40245;BME280;25963;42.694;23.600;2023-05-08T06:14:06;95366.69;;;23.23;40.38
40245;BME280;25963;42.694;23.600;2023-05-08T06:16:32;95358.47;;;22.77;40.08
40245;BME280;25963;42.694;23.600;2023-05-08T06:19:00;95362.47;;;22.79;41.71
40245;BME280;25963;42.694;23.600;2023-05-08T06:21:26;95365.97;;;22.80;39.92
40245;BME280;25963;42.694;23.600;2023-05-08T06:23:53;95356.00;;;22.81;40.88
40245;BME280;25963;42.694;23.600;2023-05-08T06:26:18;95351.00;;;23.12;42.11
40245;BME280;25963;42.694;23.600;2023-05-08T06:28:47;95333.34;;;23.57;40.33
40245;BME280;25963;42.694;23.600;2023-05-08T06:31:12;95309.94;;;23.39;38.63
40245;BME280;25963;42.694;23.600;2023-05-08T06:33:58;95349.97;;;23.27;39.57
40245;BME280;25963;42.694;23.600;2023-05-08T06:36:29;95358.72;;;23.51;38.93
40245;BME280;25963;42.694;23.600;2023-05-08T06:38:54;95363.19;;;23.94;40.25
40245;BME280;25963;42.694;23.600;2023-05-08T06:41:20;95371.84;;;24.04;37.31
40245;BME280;25963;42.694;23.600;2023-05-08T06:43:46;95362.75;;;23.86;39.75
40245;BME280;25963;42.694;23.600;2023-05-08T06:46:11;95348.44;;;23.72;38.11
40245;BME280;25963;42.694;23.600;2023-05-08T06:48:37;95339.81;;;24.17;41.57
40245;BME280;25963;42.694;23.600;2023-05-08T06:51:02;95352.75;;;24.47;37.85
40245;BME280;25963;42.694;23.600;2023-05-08T06:53:29;95354.44;;;24.29;37.46
40245;BME280;25963;42.694;23.600;2023-05-08T06:55:54;95355.91;;;24.22;40.26
40245;BME280;25963;42.694;23.600;2023-05-08T06:58:22;95352.31;;;24.68;39.25
40245;BME280;25963;42.694;23.600;2023-05-08T07:00:47;95351.03;;;24.51;42.58
40245;BME280;25963;42.694;23.600;2023-05-08T07:03:13;95364.75;;;23.95;38.61
40245;BME280;25963;42.694;23.600;2023-05-08T07:05:38;95366.91;;;23.27;38.56
40245;BME280;25963;42.694;23.600;2023-05-08T07:08:07;95346.97;;;23.80;45.02
40245;BME280;25963;42.694;23.600;2023-05-08T07:10:36;95363.22;;;23.75;40.27
40245;BME280;25963;42.694;23.600;2023-05-08T07:13:01;95364.13;;;23.70;40.33
40245;BME280;25963;42.694;23.600;2023-05-08T07:15:26;95355.38;;;23.59;38.56
40245;BME280;25963;42.694;23.600;2023-05-08T07:17:53;95353.78;;;23.91;41.52
40245;BME280;25963;42.694;23.600;2023-05-08T07:20:18;95364.19;;;24.11;40.35
40245;BME280;25963;42.694;23.600;2023-05-08T07:22:44;95359.78;;;23.88;41.94
40245;BME280;25963;42.694;23.600;2023-05-08T07:25:10;95340.38;;;23.72;40.64
40245;BME280;25963;42.694;23.600;2023-05-08T07:27:36;95348.41;;;23.91;38.77
40245;BME280;25963;42.694;23.600;2023-05-08T07:30:02;95346.97;;;23.80;39.60
40245;BME280;25963;42.694;23.600;2023-05-08T07:32:29;95350.19;;;23.96;40.40
40245;BME280;25963;42.694;23.600;2023-05-08T07:34:55;95350.47;;;23.80;40.75
40245;BME280;25963;42.694;23.600;2023-05-08T07:37:21;95364.56;;;24.05;39.13
40245;BME280;25963;42.694;23.600;2023-05-08T07:39:47;95333.69;;;23.69;40.89
40245;BME280;25963;42.694;23.600;2023-05-08T07:42:12;95324.78;;;23.69;39.63
40245;BME280;25963;42.694;23.600;2023-05-08T07:44:38;95349.47;;;23.24;40.01
40245;BME280;25963;42.694;23.600;2023-05-08T07:47:04;95361.25;;;23.29;45.24
40245;BME280;25963;42.694;23.600;2023-05-08T07:49:29;95371.69;;;23.49;42.54
40245;BME280;25963;42.694;23.600;2023-05-08T07:51:55;95357.22;;;23.45;43.96
40245;BME280;25963;42.694;23.600;2023-05-08T07:54:20;95346.69;;;23.62;44.59
40245;BME280;25963;42.694;23.600;2023-05-08T07:56:45;95349.97;;;23.78;42.34
40245;BME280;25963;42.694;23.600;2023-05-08T07:59:11;95348.84;;;23.46;39.64
40245;BME280;25963;42.694;23.600;2023-05-08T08:01:37;95364.31;;;23.74;41.72
40245;BME280;25963;42.694;23.600;2023-05-08T08:04:03;95351.00;;;23.96;43.49
40245;BME280;25963;42.694;23.600;2023-05-08T08:06:28;95358.31;;;24.37;44.37
40245;BME280;25963;42.694;23.600;2023-05-08T08:08:54;95341.31;;;24.78;40.43
40245;BME280;25963;42.694;23.600;2023-05-08T08:11:20;95355.97;;;24.99;40.51
40245;BME280;25963;42.694;23.600;2023-05-08T08:13:45;95348.03;;;25.39;48.65
40245;BME280;25963;42.694;23.600;2023-05-08T08:16:11;95357.34;;;25.78;45.49
40245;BME280;25963;42.694;23.600;2023-05-08T08:18:39;95345.38;;;25.93;38.88
40245;BME280;25963;42.694;23.600;2023-05-08T08:21:06;95345.72;;;25.24;37.48
40245;BME280;25963;42.694;23.600;2023-05-08T08:23:32;95333.44;;;25.85;39.54
40245;BME280;25963;42.694;23.600;2023-05-08T08:25:57;95346.66;;;26.35;38.40
40245;BME280;25963;42.694;23.600;2023-05-08T08:28:23;95357.47;;;25.95;38.03
40245;BME280;25963;42.694;23.600;2023-05-08T08:30:48;95355.69;;;25.82;37.60
40245;BME280;25963;42.694;23.600;2023-05-08T08:33:14;95356.66;;;25.64;38.58
40245;BME280;25963;42.694;23.600;2023-05-08T08:35:39;95360.25;;;25.37;41.22
40245;BME280;25963;42.694;23.600;2023-05-08T08:38:05;95340.31;;;25.24;39.98
40245;BME280;25963;42.694;23.600;2023-05-08T08:40:30;95337.44;;;25.43;43.00
40245;BME280;25963;42.694;23.600;2023-05-08T08:42:56;95334.25;;;25.41;42.63
40245;BME280;25963;42.694;23.600;2023-05-08T08:45:22;95344.47;;;25.30;41.12
40245;BME280;25963;42.694;23.600;2023-05-08T08:47:50;95343.41;;;25.31;43.17
40245;BME280;25963;42.694;23.600;2023-05-08T08:50:18;95345.06;;;25.41;41.90
40245;BME280;25963;42.694;23.600;2023-05-08T08:53:09;95322.53;;;25.09;42.03
40245;BME280;25963;42.694;23.600;2023-05-08T08:55:38;95334.78;;;25.29;41.97
40245;BME280;25963;42.694;23.600;2023-05-08T09:00:40;95311.34;;;25.61;40.27
40245;BME280;25963;42.694;23.600;2023-05-08T09:03:06;95327.88;;;25.90;40.20
40245;BME280;25963;42.694;23.600;2023-05-08T09:05:32;95343.19;;;25.95;40.68
40245;BME280;25963;42.694;23.600;2023-05-08T09:08:08;95293.53;;;25.60;41.88
40245;BME280;25963;42.694;23.600;2023-05-08T09:10:34;95310.25;;;25.93;44.19
40245;BME280;25963;42.694;23.600;2023-05-08T09:13:03;95308.53;;;25.21;42.82
40245;BME280;25963;42.694;23.600;2023-05-08T09:15:32;95335.59;;;24.93;44.88
40245;BME280;25963;42.694;23.600;2023-05-08T09:18:07;95307.75;;;25.06;42.05
40245;BME280;25963;42.694;23.600;2023-05-08T09:20:32;95326.50;;;25.70;41.85
40245;BME280;25963;42.694;23.600;2023-05-08T09:23:00;95305.50;;;25.99;41.98
40245;BME280;25963;42.694;23.600;2023-05-08T09:25:46;95305.88;;;26.06;42.18
40245;BME280;25963;42.694;23.600;2023-05-08T09:28:22;95289.50;;;26.11;43.22
40245;BME280;25963;42.694;23.600;2023-05-08T09:30:52;95281.81;;;25.95;42.62
40245;BME280;25963;42.694;23.600;2023-05-08T09:33:19;95302.19;;;26.02;40.41
40245;BME280;25963;42.694;23.600;2023-05-08T09:35:48;95264.44;;;25.57;41.50
40245;BME280;25963;42.694;23.600;2023-05-08T09:38:33;95301.06;;;25.40;43.32
40245;BME280;25963;42.694;23.600;2023-05-08T09:41:28;95266.91;;;24.99;43.01
40245;BME280;25963;42.694;23.600;2023-05-08T09:44:02;95265.75;;;24.42;43.08
40245;BME280;25963;42.694;23.600;2023-05-08T09:46:28;95301.28;;;24.57;43.32
40245;BME280;25963;42.694;23.600;2023-05-08T09:48:58;95286.25;;;24.43;43.23
40245;BME280;25963;42.694;23.600;2023-05-08T09:51:25;95298.19;;;24.36;44.80
40245;BME280;25963;42.694;23.600;2023-05-08T09:53:52;95291.41;;;24.25;46.92
40245;BME280;25963;42.694;23.600;2023-05-08T09:56:35;95269.97;;;23.92;44.41
40245;BME280;25963;42.694;23.600;2023-05-08T09:59:20;95268.25;;;24.24;47.45
40245;BME280;25963;42.694;23.600;2023-05-08T10:01:46;95273.16;;;24.22;45.75
40245;BME280;25963;42.694;23.600;2023-05-08T10:04:13;95280.97;;;23.96;47.55
40245;BME280;25963;42.694;23.600;2023-05-08T10:06:39;95273.66;;;24.10;47.01
40245;BME280;25963;42.694;23.600;2023-05-08T10:09:14;95282.63;;;23.92;49.79
40245;BME280;25963;42.694;23.600;2023-05-08T10:11:41;95286.94;;;24.21;49.30
40245;BME280;25963;42.694;23.600;2023-05-08T10:14:16;95272.94;;;24.60;47.42
40245;BME280;25963;42.694;23.600;2023-05-08T10:16:43;95278.09;;;24.70;45.93
40245;BME280;25963;42.694;23.600;2023-05-08T10:19:16;95274.56;;;25.06;46.79
40245;BME280;25963;42.694;23.600;2023-05-08T10:21:46;95253.78;;;25.06;44.96
40245;BME280;25963;42.694;23.600;2023-05-08T10:24:14;95267.69;;;25.14;43.73
40245;BME280;25963;42.694;23.600;2023-05-08T10:26:43;95269.50;;;25.27;47.92
40245;BME280;25963;42.694;23.600;2023-05-08T10:29:16;95225.19;;;24.60;46.39
40245;BME280;25963;42.694;23.600;2023-05-08T10:31:45;95259.50;;;25.05;45.42
40245;BME280;25963;42.694;23.600;2023-05-08T10:34:18;95265.94;;;25.40;45.04
40245;BME280;25963;42.694;23.600;2023-05-08T10:36:45;95264.81;;;25.64;46.33
40245;BME280;25963;42.694;23.600;2023-05-08T10:39:13;95265.72;;;25.59;45.24
40245;BME280;25963;42.694;23.600;2023-05-08T10:41:39;95263.59;;;25.47;45.92
40245;BME280;25963;42.694;23.600;2023-05-08T10:44:06;95261.00;;;25.65;44.54
40245;BME280;25963;42.694;23.600;2023-05-08T10:46:52;95263.78;;;25.51;45.07
40245;BME280;25963;42.694;23.600;2023-05-08T10:52:26;95228.50;;;25.16;46.16
40245;BME280;25963;42.694;23.600;2023-05-08T10:55:01;95259.94;;;25.21;46.48
40245;BME280;25963;42.694;23.600;2023-05-08T10:57:32;95245.38;;;25.08;45.53
40245;BME280;25963;42.694;23.600;2023-05-08T10:59:58;95237.59;;;25.06;46.92
40245;BME280;25963;42.694;23.600;2023-05-08T11:02:28;95233.19;;;25.33;44.25
40245;BME280;25963;42.694;23.600;2023-05-08T11:05:14;95227.06;;;25.19;44.23
40245;BME280;25963;42.694;23.600;2023-05-08T11:07:57;95244.56;;;25.53;42.72
40245;BME280;25963;42.694;23.600;2023-05-08T11:10:29;95238.72;;;25.90;46.21
40245;BME280;25963;42.694;23.600;2023-05-08T11:12:56;95234.69;;;25.79;42.83
40245;BME280;25963;42.694;23.600;2023-05-08T11:15:38;95232.25;;;26.00;45.58
40245;BME280;25963;42.694;23.600;2023-05-08T11:18:08;95201.41;;;26.01;46.91
40245;BME280;25963;42.694;23.600;2023-05-08T11:20:38;95235.00;;;26.26;45.84
40245;BME280;25963;42.694;23.600;2023-05-08T11:26:01;95231.28;;;25.65;43.32
40245;BME280;25963;42.694;23.600;2023-05-08T11:28:30;95232.69;;;25.62;44.29
40245;BME280;25963;42.694;23.600;2023-05-08T11:30:55;95204.09;;;25.61;46.04
40245;BME280;25963;42.694;23.600;2023-05-08T11:33:28;95216.50;;;25.31;46.75
40245;BME280;25963;42.694;23.600;2023-05-08T11:36:15;95216.84;;;25.78;47.22
40245;BME280;25963;42.694;23.600;2023-05-08T11:38:42;95186.13;;;25.57;50.22
40245;BME280;25963;42.694;23.600;2023-05-08T11:41:23;95196.28;;;25.60;45.42
40245;BME280;25963;42.694;23.600;2023-05-08T11:46:21;95187.56;;;26.03;41.50
40245;BME280;25963;42.694;23.600;2023-05-08T11:48:46;95183.34;;;26.45;43.48
40245;BME280;25963;42.694;23.600;2023-05-08T11:51:12;95185.88;;;27.11;45.22
40245;BME280;25963;42.694;23.600;2023-05-08T11:53:42;95162.47;;;27.15;44.21
40245;BME280;25963;42.694;23.600;2023-05-08T11:56:08;95173.13;;;27.03;39.62
40245;BME280;25963;42.694;23.600;2023-05-08T11:58:34;95159.44;;;27.08;40.24
40245;BME280;25963;42.694;23.600;2023-05-08T12:01:03;95149.53;;;27.29;43.64
40245;BME280;25963;42.694;23.600;2023-05-08T12:03:30;95145.22;;;27.67;42.26
40245;BME280;25963;42.694;23.600;2023-05-08T12:05:57;95149.31;;;27.82;33.62
40245;BME280;25963;42.694;23.600;2023-05-08T12:08:23;95142.13;;;27.86;32.59
40245;BME280;25963;42.694;23.600;2023-05-08T12:13:25;95155.75;;;27.68;35.02
40245;BME280;25963;42.694;23.600;2023-05-08T12:15:52;95154.59;;;27.69;33.36
40245;BME280;25963;42.694;23.600;2023-05-08T12:18:19;95156.94;;;27.88;33.79
40245;BME280;25963;42.694;23.600;2023-05-08T12:20:45;95130.13;;;27.57;34.16
40245;BME280;25963;42.694;23.600;2023-05-08T12:23:16;95128.38;;;27.14;35.75
40245;BME280;25963;42.694;23.600;2023-05-08T12:25:41;95127.19;;;27.41;38.59
40245;BME280;25963;42.694;23.600;2023-05-08T12:28:10;95134.03;;;26.66;33.02
40245;BME280;25963;42.694;23.600;2023-05-08T12:30:36;95130.97;;;26.93;34.36
40245;BME280;25963;42.694;23.600;2023-05-08T12:33:03;95131.53;;;27.25;34.61
40245;BME280;25963;42.694;23.600;2023-05-08T12:35:29;95160.59;;;27.45;34.96
40245;BME280;25963;42.694;23.600;2023-05-08T12:38:02;95154.38;;;27.53;36.85
40245;BME280;25963;42.694;23.600;2023-05-08T12:40:31;95154.13;;;27.38;37.15
40245;BME280;25963;42.694;23.600;2023-05-08T12:43:02;95114.63;;;27.28;38.21
40245;BME280;25963;42.694;23.600;2023-05-08T12:45:33;95117.16;;;27.71;35.10
40245;BME280;25963;42.694;23.600;2023-05-08T12:48:04;95136.03;;;28.39;33.65
40245;BME280;25963;42.694;23.600;2023-05-08T12:50:42;95121.75;;;27.80;32.41
40245;BME280;25963;42.694;23.600;2023-05-08T12:53:09;95137.19;;;26.76;39.46
40245;BME280;25963;42.694;23.600;2023-05-08T12:55:37;95127.94;;;25.50;43.56
40245;BME280;25963;42.694;23.600;2023-05-08T12:58:08;95161.63;;;24.32;47.80
40245;BME280;25963;42.694;23.600;2023-05-08T13:03:03;95142.72;;;22.99;51.45
40245;BME280;25963;42.694;23.600;2023-05-08T13:05:28;95129.19;;;22.39;53.20
40245;BME280;25963;42.694;23.600;2023-05-08T13:08:03;95128.94;;;21.97;55.10
40245;BME280;25963;42.694;23.600;2023-05-08T13:10:49;95149.63;;;21.97;54.65
40245;BME280;25963;42.694;23.600;2023-05-08T13:13:29;95127.34;;;22.34;54.65
40245;BME280;25963;42.694;23.600;2023-05-08T13:16:14;95111.88;;;22.45;56.24
40245;BME280;25963;42.694;23.600;2023-05-08T13:18:39;95133.19;;;22.88;54.02
40245;BME280;25963;42.694;23.600;2023-05-08T13:21:14;95113.31;;;22.37;55.38
40245;BME280;25963;42.694;23.600;2023-05-08T13:23:40;95109.25;;;22.72;53.85
40245;BME280;25963;42.694;23.600;2023-05-08T13:26:22;95154.34;;;22.94;53.54
40245;BME280;25963;42.694;23.600;2023-05-08T13:28:49;95131.91;;;22.85;52.03
40245;BME280;25963;42.694;23.600;2023-05-08T13:31:15;95098.44;;;22.77;54.28
40245;BME280;25963;42.694;23.600;2023-05-08T13:33:40;95109.31;;;22.86;52.10
40245;BME280;25963;42.694;23.600;2023-05-08T13:36:06;95114.38;;;22.55;53.12
40245;BME280;25963;42.694;23.600;2023-05-08T13:38:31;95125.47;;;22.67;53.59
40245;BME280;25963;42.694;23.600;2023-05-08T13:40:57;95134.59;;;22.85;55.57
40245;BME280;25963;42.694;23.600;2023-05-08T13:43:22;95130.16;;;22.62;53.27
40245;BME280;25963;42.694;23.600;2023-05-08T13:45:52;95137.09;;;22.30;54.78
40245;BME280;25963;42.694;23.600;2023-05-08T13:48:18;95148.56;;;22.36;55.54
40245;BME280;25963;42.694;23.600;2023-05-08T13:50:44;95150.16;;;22.37;58.05
40245;BME280;25963;42.694;23.600;2023-05-08T13:53:10;95134.53;;;22.01;60.80
40245;BME280;25963;42.694;23.600;2023-05-08T13:55:39;95147.72;;;21.78;60.09